Time;durP1;ratioP1;P1;durP2;ratioP2;P2;SDS_P1;SDS_P2;PMS_P1;PMS_P2;Temp;Humidity;BMP_temperature;BMP_pressure;BME280_temperature;BME280_humidity;BME280_pressure;Samples;Min_cycle;Max_cycle;Signal;HPM_P1;HPM_P2
2023/06/12 09:22:44;;;;;;;;;17.75;16.25;;;;;;;;4995751;28;11198;-72
2023/06/12 09:25:10;;;;;;;;;10.00;10.00;;;;;;;;5006049;28;11183;-72
2023/06/12 09:27:40;;;;;;;;;15.25;15.25;;;;;;;;5006698;28;8825;-72
2023/06/12 09:30:07;;;;;;;;;20.00;18.25;;;;;;;;5005449;28;8806;-71
2023/06/12 09:32:32;;;;;;;;;14.25;13.00;;;;;;;;5005453;28;11104;-72
2023/06/12 09:34:57;;;;;;;;;23.00;23.00;;;;;;;;5006753;28;10955;-74
2023/06/12 09:37:23;;;;;;;;;17.75;17.25;;;;;;;;5006675;28;8953;-72
2023/06/12 09:39:48;;;;;;;;;18.00;16.50;;;;;;;;5006759;28;8801;-73
2023/06/12 09:42:16;;;;;;;;;17.25;16.00;;;;;;;;5006534;28;8830;-73
2023/06/12 09:44:42;;;;;;;;;14.75;14.75;;;;;;;;5006798;28;8794;-77
2023/06/12 09:47:07;;;;;;;;;19.25;17.00;;;;;;;;5006360;28;11046;-73
2023/06/12 09:49:34;;;;;;;;;14.75;14.75;;;;;;;;5007366;28;8822;-72
2023/06/12 09:52:04;;;;;;;;;21.25;20.50;;;;;;;;5006957;28;9550;-72
2023/06/12 09:54:32;;;;;;;;;20.00;20.00;;;;;;;;5009597;28;11499;-72
2023/06/12 09:56:58;;;;;;;;;17.50;17.50;;;;;;;;5009236;28;11415;-73
2023/06/12 09:59:26;;;;;;;;;16.75;16.75;;;;;;;;5006096;28;10942;-73
2023/06/12 10:01:55;;;;;;;;;18.25;15.75;;;;;;;;5006288;28;8814;-73
2023/06/12 10:04:37;;;;;;;;;20.75;18.00;;;;;;;;5008723;28;11182;-73
2023/06/12 10:07:05;;;;;;;;;20.00;20.00;;;;;;;;5007103;28;11365;-73
2023/06/12 10:09:31;;;;;;;;;19.75;18.50;;;;;;;;5004329;28;12309;-72
2023/06/12 10:11:57;;;;;;;;;23.00;20.00;;;;;;;;5009621;28;11257;-72
2023/06/12 10:14:26;;;;;;;;;23.50;19.50;;;;;;;;5007591;28;8894;-73
2023/06/12 10:16:53;;;;;;;;;24.50;23.75;;;;;;;;5008702;28;11501;-76
2023/06/12 10:19:18;;;;;;;;;21.50;20.75;;;;;;;;5009083;28;11496;-73
2023/06/12 10:21:44;;;;;;;;;26.25;23.75;;;;;;;;5008374;28;11540;-73
2023/06/12 10:24:10;;;;;;;;;18.50;18.50;;;;;;;;5005144;28;9041;-74
2023/06/12 10:26:35;;;;;;;;;25.00;24.50;;;;;;;;5009608;28;8817;-73
2023/06/12 10:29:00;;;;;;;;;23.50;19.25;;;;;;;;5008222;28;8830;-73
2023/06/12 10:31:29;;;;;;;;;23.50;22.75;;;;;;;;5007350;28;8806;-72
2023/06/12 10:33:58;;;;;;;;;21.75;20.50;;;;;;;;5009446;28;8871;-73
2023/06/12 10:36:23;;;;;;;;;19.00;19.00;;;;;;;;5009651;28;11214;-81
2023/06/12 10:38:49;;;;;;;;;21.50;20.00;;;;;;;;5011068;28;11510;-84
2023/06/12 10:41:30;;;;;;;;;21.75;21.00;;;;;;;;5011912;28;8944;-84
2023/06/12 10:43:55;;;;;;;;;21.25;20.50;;;;;;;;5010598;28;8813;-82
2023/06/12 10:46:21;;;;;;;;;22.75;21.75;;;;;;;;5011732;28;12300;-82
2023/06/12 10:48:47;;;;;;;;;24.75;21.75;;;;;;;;5009525;28;8877;-81
2023/06/12 10:51:12;;;;;;;;;21.75;20.75;;;;;;;;5011824;28;8821;-82
2023/06/12 10:53:42;;;;;;;;;22.00;21.25;;;;;;;;5008987;28;8849;-82
2023/06/12 10:56:08;;;;;;;;;28.50;23.00;;;;;;;;5011442;28;8802;-85
2023/06/12 10:58:37;;;;;;;;;24.25;21.25;;;;;;;;5013925;28;11174;-82
2023/06/12 11:01:06;;;;;;;;;23.00;21.50;;;;;;;;5014192;28;8809;-83
2023/06/12 11:03:33;;;;;;;;;21.00;20.75;;;;;;;;5005019;28;11115;-81
2023/06/12 11:06:08;;;;;;;;;21.25;20.00;;;;;;;;5009760;28;11140;-81
2023/06/12 11:08:34;;;;;;;;;22.25;20.25;;;;;;;;5009055;28;11106;-81
2023/06/12 11:11:04;;;;;;;;;26.25;23.75;;;;;;;;5009132;28;11062;-81
2023/06/12 11:13:30;;;;;;;;;24.75;23.75;;;;;;;;5009038;28;8786;-82
2023/06/12 11:15:55;;;;;;;;;23.25;21.50;;;;;;;;5012068;28;10909;-82
2023/06/12 11:18:20;;;;;;;;;26.00;25.00;;;;;;;;5013278;28;8860;-85
2023/06/12 11:20:55;;;;;;;;;27.00;23.50;;;;;;;;5010533;28;8834;-82
2023/06/12 11:23:21;;;;;;;;;25.75;24.00;;;;;;;;5009241;28;8790;-83
2023/06/12 11:25:46;;;;;;;;;20.25;20.25;;;;;;;;5009241;28;11141;-83
2023/06/12 11:28:12;;;;;;;;;23.00;20.75;;;;;;;;5010182;28;8802;-84
2023/06/12 11:30:37;;;;;;;;;26.00;25.50;;;;;;;;5015282;28;9590;-84
2023/06/12 11:33:07;;;;;;;;;19.00;19.00;;;;;;;;5011035;28;9373;-83
2023/06/12 11:35:32;;;;;;;;;25.75;25.75;;;;;;;;5008827;28;8794;-83
2023/06/12 11:37:57;;;;;;;;;24.00;21.50;;;;;;;;5008546;28;11524;-84
2023/06/12 11:40:26;;;;;;;;;23.50;22.75;;;;;;;;5009093;28;9598;-83
2023/06/12 11:42:53;;;;;;;;;30.00;28.75;;;;;;;;5005533;28;9046;-83
2023/06/12 11:45:18;;;;;;;;;28.25;27.25;;;;;;;;5006247;28;11496;-84
2023/06/12 11:47:45;;;;;;;;;26.00;25.00;;;;;;;;5008159;28;12337;-83
2023/06/12 11:50:12;;;;;;;;;28.00;26.75;;;;;;;;5009496;28;8894;-82
2023/06/12 11:52:38;;;;;;;;;29.50;26.50;;;;;;;;5009925;28;11521;-84
2023/06/12 11:55:08;;;;;;;;;25.75;25.50;;;;;;;;5009536;28;11507;-84
2023/06/12 11:57:34;;;;;;;;;25.00;24.50;;;;;;;;5007170;28;11491;-87
2023/06/12 12:00:06;;;;;;;;;26.00;24.50;;;;;;;;5008688;28;11351;-88
2023/06/12 12:02:33;;;;;;;;;24.25;24.25;;;;;;;;5007064;28;8865;-85
2023/06/12 12:04:59;;;;;;;;;23.75;22.00;;;;;;;;5009086;28;11562;-82
2023/06/12 12:07:26;;;;;;;;;26.50;23.75;;;;;;;;5009088;28;11492;-82
2023/06/12 12:10:08;;;;;;;;;24.00;21.25;;;;;;;;5009830;28;8802;-81
2023/06/12 12:12:46;;;;;;;;;25.75;24.25;;;;;;;;5006173;28;11475;-83
2023/06/12 12:15:16;;;;;;;;;26.50;24.00;;;;;;;;5007077;28;11289;-85
2023/06/12 12:17:42;;;;;;;;;24.50;24.50;;;;;;;;5007542;28;11516;-85
2023/06/12 12:20:12;;;;;;;;;26.25;26.25;;;;;;;;5006858;28;11507;-84
2023/06/12 12:22:39;;;;;;;;;27.25;26.00;;;;;;;;5008959;28;9621;-83
2023/06/12 12:25:05;;;;;;;;;24.00;24.00;;;;;;;;5009471;28;11185;-84
2023/06/12 12:27:30;;;;;;;;;30.25;30.25;;;;;;;;5007845;28;11509;-84
2023/06/12 12:29:55;;;;;;;;;28.25;28.25;;;;;;;;5007282;28;11319;-85
2023/06/12 12:32:21;;;;;;;;;27.25;27.00;;;;;;;;5007985;28;9597;-83
2023/06/12 12:34:46;;;;;;;;;29.75;29.00;;;;;;;;5006895;28;9591;-84
2023/06/12 12:37:11;;;;;;;;;28.25;25.00;;;;;;;;5008382;28;8829;-86
2023/06/12 12:39:37;;;;;;;;;27.75;23.75;;;;;;;;5008344;28;8810;-85
2023/06/12 12:42:02;;;;;;;;;23.25;23.25;;;;;;;;5007864;28;9582;-85
2023/06/12 12:44:27;;;;;;;;;28.00;27.50;;;;;;;;5009427;28;8826;-85
2023/06/12 12:46:52;;;;;;;;;19.75;19.75;;;;;;;;5008491;28;8817;-83
2023/06/12 12:49:18;;;;;;;;;29.25;26.75;;;;;;;;5006256;28;9033;-84
2023/06/12 12:51:43;;;;;;;;;26.00;24.00;;;;;;;;5009192;28;8849;-88
2023/06/12 12:54:08;;;;;;;;;18.75;17.75;;;;;;;;5007545;28;8853;-85
2023/06/12 12:56:33;;;;;;;;;27.00;27.00;;;;;;;;5007513;28;8860;-83
2023/06/12 12:58:58;;;;;;;;;28.75;26.25;;;;;;;;5008546;28;8849;-85
2023/06/12 13:01:24;;;;;;;;;25.50;24.75;;;;;;;;5008641;28;8841;-84
2023/06/12 13:03:53;;;;;;;;;26.25;25.25;;;;;;;;5007190;28;8833;-84
2023/06/12 13:06:19;;;;;;;;;22.75;21.75;;;;;;;;5007386;28;8791;-83
2023/06/12 13:08:45;;;;;;;;;24.25;24.25;;;;;;;;5007434;28;11585;-84
2023/06/12 13:11:11;;;;;;;;;29.25;27.50;;;;;;;;5009054;28;11715;-82
2023/06/12 13:13:36;;;;;;;;;23.75;23.75;;;;;;;;5008359;28;12379;-83
2023/06/12 13:16:01;;;;;;;;;22.25;22.25;;;;;;;;5007647;28;8826;-84
2023/06/12 13:18:27;;;;;;;;;25.00;24.75;;;;;;;;5007330;28;8825;-85
2023/06/12 13:20:53;;;;;;;;;23.25;23.00;;;;;;;;5007008;28;8869;-86
2023/06/12 13:23:20;;;;;;;;;25.00;22.50;;;;;;;;5006330;28;8821;-85
2023/06/12 13:25:45;;;;;;;;;19.25;18.00;;;;;;;;5006964;28;10968;-83
2023/06/12 13:28:10;;;;;;;;;19.00;18.50;;;;;;;;5006666;28;11133;-83
2023/06/12 13:30:35;;;;;;;;;21.25;18.50;;;;;;;;5007346;28;8841;-84
2023/06/12 13:33:01;;;;;;;;;21.75;21.75;;;;;;;;5006976;28;8837;-83
2023/06/12 13:35:26;;;;;;;;;21.00;21.00;;;;;;;;5001653;28;8852;-82
2023/06/12 13:37:51;;;;;;;;;22.25;19.25;;;;;;;;5006682;28;9609;-83
2023/06/12 13:40:17;;;;;;;;;25.00;23.75;;;;;;;;5003075;28;8842;-84
2023/06/12 13:42:44;;;;;;;;;22.75;21.50;;;;;;;;5007221;28;8845;-83
2023/06/12 13:45:09;;;;;;;;;21.25;20.50;;;;;;;;5003035;28;10975;-83
2023/06/12 13:47:36;;;;;;;;;22.25;22.25;;;;;;;;5000837;28;10874;-83
2023/06/12 13:50:01;;;;;;;;;20.50;18.50;;;;;;;;5005540;28;8852;-83
2023/06/12 13:52:29;;;;;;;;;19.25;17.25;;;;;;;;5006985;28;11728;-83
2023/06/12 13:54:54;;;;;;;;;20.75;20.00;;;;;;;;5004609;28;8787;-79
2023/06/12 13:57:20;;;;;;;;;23.50;20.25;;;;;;;;5004701;28;11073;-85
2023/06/12 13:59:45;;;;;;;;;21.25;20.00;;;;;;;;5008986;28;8921;-80
2023/06/12 14:02:10;;;;;;;;;21.00;19.50;;;;;;;;5007892;28;8850;-83
2023/06/12 14:04:36;;;;;;;;;23.50;20.00;;;;;;;;5006956;28;8830;-82
2023/06/12 14:07:02;;;;;;;;;23.25;22.25;;;;;;;;5006949;28;8944;-82
2023/06/12 14:09:27;;;;;;;;;11.00;11.00;;;;;;;;5004879;28;8802;-83
2023/06/12 14:11:55;;;;;;;;;17.75;17.00;;;;;;;;5006186;28;11003;-82
2023/06/12 14:14:21;;;;;;;;;17.25;17.25;;;;;;;;5004942;28;8829;-81
2023/06/12 14:16:47;;;;;;;;;24.00;21.00;;;;;;;;5004084;28;11044;-82
2023/06/12 14:19:12;;;;;;;;;20.00;17.75;;;;;;;;5006251;28;11508;-82
2023/06/12 14:21:37;;;;;;;;;20.25;19.25;;;;;;;;5003192;28;11718;-82
2023/06/12 14:24:03;;;;;;;;;16.00;16.00;;;;;;;;5004259;28;9375;-81
2023/06/12 14:26:29;;;;;;;;;18.75;18.75;;;;;;;;5000123;28;8806;-82
2023/06/12 14:28:55;;;;;;;;;12.00;12.00;;;;;;;;5006118;28;11581;-81
2023/06/12 14:31:20;;;;;;;;;20.75;19.00;;;;;;;;5006203;28;11582;-82
2023/06/12 14:33:46;;;;;;;;;21.25;19.00;;;;;;;;5002385;28;8827;-81
2023/06/12 14:36:11;;;;;;;;;14.00;12.25;;;;;;;;5007642;28;8837;-78
2023/06/12 14:38:36;;;;;;;;;16.25;16.25;;;;;;;;5008354;28;9582;-80
2023/06/12 14:41:01;;;;;;;;;16.50;15.25;;;;;;;;5005341;28;8838;-83
2023/06/12 14:43:26;;;;;;;;;13.75;12.75;;;;;;;;5009591;28;8917;-84
2023/06/12 14:45:52;;;;;;;;;16.75;16.75;;;;;;;;5009084;28;8817;-84
2023/06/12 14:48:19;;;;;;;;;17.75;17.25;;;;;;;;5007297;28;8817;-83
2023/06/12 14:50:45;;;;;;;;;21.75;21.00;;;;;;;;5009689;28;8802;-82
2023/06/12 14:53:12;;;;;;;;;18.25;18.25;;;;;;;;5011292;28;11964;-84
2023/06/12 14:55:42;;;;;;;;;22.25;17.75;;;;;;;;5010263;28;8860;-85
2023/06/12 14:58:07;;;;;;;;;18.25;18.25;;;;;;;;5009327;28;11487;-84
2023/06/12 15:00:32;;;;;;;;;19.50;19.50;;;;;;;;5009139;28;11546;-85
2023/06/12 15:02:57;;;;;;;;;13.75;13.75;;;;;;;;5005229;28;8829;-83
2023/06/12 15:05:22;;;;;;;;;19.25;19.00;;;;;;;;5009178;28;8837;-82
2023/06/12 15:07:48;;;;;;;;;19.50;18.50;;;;;;;;5005962;28;8912;-91
2023/06/12 15:10:13;;;;;;;;;19.50;17.75;;;;;;;;5004327;28;8936;-85
2023/06/12 15:12:38;;;;;;;;;21.00;19.50;;;;;;;;5009394;28;8925;-86
2023/06/12 15:15:04;;;;;;;;;23.00;18.50;;;;;;;;5005190;28;8946;-87
2023/06/12 15:17:29;;;;;;;;;19.50;19.25;;;;;;;;5004285;28;8849;-83
2023/06/12 15:19:55;;;;;;;;;21.00;20.00;;;;;;;;5004121;28;8829;-83
2023/06/12 15:22:20;;;;;;;;;18.75;17.75;;;;;;;;5005514;28;8830;-85
2023/06/12 15:24:45;;;;;;;;;18.25;18.25;;;;;;;;5004366;28;8825;-84
2023/06/12 15:27:11;;;;;;;;;20.50;18.75;;;;;;;;5005387;28;8833;-85
2023/06/12 15:29:36;;;;;;;;;21.50;17.00;;;;;;;;5012365;28;8818;-85
2023/06/12 15:32:04;;;;;;;;;16.75;16.75;;;;;;;;5004420;28;8822;-84
2023/06/12 15:34:29;;;;;;;;;19.75;19.25;;;;;;;;5005654;28;8782;-87
2023/06/12 15:36:54;;;;;;;;;16.50;15.25;;;;;;;;5005906;28;11308;-85
2023/06/12 15:39:20;;;;;;;;;23.25;21.00;;;;;;;;5007474;28;8999;-68
2023/06/12 15:41:45;;;;;;;;;23.25;19.50;;;;;;;;5007712;28;9602;-75
2023/06/12 15:44:10;;;;;;;;;20.50;19.00;;;;;;;;5004989;28;8841;-75
2023/06/12 15:46:35;;;;;;;;;17.75;17.00;;;;;;;;5004705;28;8826;-76
2023/06/12 15:49:00;;;;;;;;;18.25;18.00;;;;;;;;5001919;28;9959;-72
2023/06/12 15:51:26;;;;;;;;;21.50;19.75;;;;;;;;5005893;28;8826;-73
2023/06/12 15:53:52;;;;;;;;;17.25;16.25;;;;;;;;5006062;28;8860;-74
2023/06/12 15:56:17;;;;;;;;;19.50;17.75;;;;;;;;5008504;28;8886;-74
2023/06/12 15:58:43;;;;;;;;;18.00;18.00;;;;;;;;5006616;28;8849;-74
2023/06/12 16:01:09;;;;;;;;;17.00;16.00;;;;;;;;5002552;28;8864;-73
2023/06/12 16:03:34;;;;;;;;;17.00;17.00;;;;;;;;5006983;28;11223;-80
2023/06/12 16:05:59;;;;;;;;;17.25;17.25;;;;;;;;5002067;28;8940;-77
2023/06/12 16:08:25;;;;;;;;;17.00;17.00;;;;;;;;5007836;28;8850;-80
2023/06/12 16:10:50;;;;;;;;;19.75;17.25;;;;;;;;5008088;28;9579;-77
2023/06/12 16:13:16;;;;;;;;;8.75;7.50;;;;;;;;5008289;28;8843;-76
2023/06/12 16:15:41;;;;;;;;;19.00;19.00;;;;;;;;5005467;28;8872;-78
2023/06/12 16:18:06;;;;;;;;;20.25;18.25;;;;;;;;5008150;28;8813;-79
2023/06/12 16:20:31;;;;;;;;;18.25;18.25;;;;;;;;5007879;28;8873;-77
2023/06/12 16:22:56;;;;;;;;;17.00;17.00;;;;;;;;5007972;28;8853;-81
2023/06/12 16:25:21;;;;;;;;;18.25;15.75;;;;;;;;5008070;28;8837;-78
2023/06/12 16:27:47;;;;;;;;;13.75;13.75;;;;;;;;5007925;28;8842;-78
2023/06/12 16:30:13;;;;;;;;;14.75;13.75;;;;;;;;5008078;28;8853;-78
2023/06/12 16:32:38;;;;;;;;;16.75;16.75;;;;;;;;5008727;28;8928;-77
2023/06/12 16:35:03;;;;;;;;;15.00;15.00;;;;;;;;5008579;28;11642;-78
2023/06/12 16:37:29;;;;;;;;;19.00;18.00;;;;;;;;5008400;28;8837;-78
2023/06/12 16:40:07;;;;;;;;;17.50;17.50;;;;;;;;5004615;28;8826;-77
2023/06/12 16:42:33;;;;;;;;;18.25;17.25;;;;;;;;5008185;28;8821;-78
2023/06/12 16:44:58;;;;;;;;;13.50;11.25;;;;;;;;5007734;28;11511;-82
2023/06/12 16:47:23;;;;;;;;;15.00;15.00;;;;;;;;5007821;28;8837;-79
2023/06/12 16:49:49;;;;;;;;;16.25;15.25;;;;;;;;5005706;28;8833;-81
2023/06/12 16:52:15;;;;;;;;;22.25;18.50;;;;;;;;5007512;28;8834;-78
2023/06/12 16:54:40;;;;;;;;;22.25;20.75;;;;;;;;5007394;28;8847;-77
2023/06/12 16:57:07;;;;;;;;;18.75;16.75;;;;;;;;5007320;28;11206;-76
2023/06/12 16:59:32;;;;;;;;;19.50;18.25;;;;;;;;5007174;28;8794;-76
2023/06/12 17:01:57;;;;;;;;;20.00;20.00;;;;;;;;5006971;28;11538;-75
2023/06/12 17:04:22;;;;;;;;;19.50;19.00;;;;;;;;5007387;28;8856;-75
2023/06/12 17:06:47;;;;;;;;;21.00;20.00;;;;;;;;5006864;28;8829;-75
2023/06/12 17:09:13;;;;;;;;;17.50;17.50;;;;;;;;5006870;28;8832;-76
2023/06/12 17:11:38;;;;;;;;;23.50;21.75;;;;;;;;5007033;28;8837;-77
2023/06/12 17:14:03;;;;;;;;;21.25;21.25;;;;;;;;5005917;28;8852;-75
2023/06/12 17:16:28;;;;;;;;;22.00;19.25;;;;;;;;5007097;28;8834;-78
2023/06/12 17:18:54;;;;;;;;;17.50;17.25;;;;;;;;5007422;28;8826;-75
2023/06/12 17:21:19;;;;;;;;;19.50;18.25;;;;;;;;5003389;28;8842;-74
2023/06/12 17:23:44;;;;;;;;;18.00;18.00;;;;;;;;5006982;28;8848;-73
2023/06/12 17:26:10;;;;;;;;;17.50;15.50;;;;;;;;5006919;28;8821;-75
2023/06/12 17:28:35;;;;;;;;;20.25;20.25;;;;;;;;5004684;28;9594;-74
2023/06/12 17:31:00;;;;;;;;;19.00;17.75;;;;;;;;5006491;28;9622;-73
2023/06/12 17:33:26;;;;;;;;;22.75;21.50;;;;;;;;4999749;28;8824;-73
2023/06/12 17:35:53;;;;;;;;;20.75;20.75;;;;;;;;5006101;28;8830;-74
2023/06/12 17:38:18;;;;;;;;;22.25;20.75;;;;;;;;5006851;28;8790;-75
2023/06/12 17:40:43;;;;;;;;;23.25;21.00;;;;;;;;5006781;28;11548;-73
2023/06/12 17:43:08;;;;;;;;;21.50;19.00;;;;;;;;5006682;28;8849;-75
2023/06/12 17:45:34;;;;;;;;;18.75;16.00;;;;;;;;5006689;28;8852;-76
2023/06/12 17:47:59;;;;;;;;;15.50;14.00;;;;;;;;5006179;28;8944;-76
2023/06/12 17:50:24;;;;;;;;;21.50;19.50;;;;;;;;4998613;28;8993;-75
2023/06/12 17:52:49;;;;;;;;;21.00;21.00;;;;;;;;5006037;28;8837;-75
2023/06/12 17:55:15;;;;;;;;;23.00;20.75;;;;;;;;5006158;28;8833;-76
2023/06/12 17:57:40;;;;;;;;;23.75;22.00;;;;;;;;5004577;28;9007;-76
2023/06/12 18:00:06;;;;;;;;;22.75;22.75;;;;;;;;5006592;28;8830;-76
2023/06/12 18:02:31;;;;;;;;;20.50;20.50;;;;;;;;5006844;28;8896;-76
2023/06/12 18:04:56;;;;;;;;;22.25;21.25;;;;;;;;5006354;28;8838;-74
2023/06/12 18:07:21;;;;;;;;;24.25;22.25;;;;;;;;5006674;28;8907;-81
2023/06/12 18:09:47;;;;;;;;;21.25;19.00;;;;;;;;5006421;28;8915;-74
2023/06/12 18:12:13;;;;;;;;;23.00;20.25;;;;;;;;5009183;28;8817;-73
2023/06/12 18:14:38;;;;;;;;;23.00;22.00;;;;;;;;5004585;28;8833;-77
2023/06/12 18:17:03;;;;;;;;;21.25;20.50;;;;;;;;5008365;28;11688;-75
2023/06/12 18:19:29;;;;;;;;;19.75;18.50;;;;;;;;5006637;28;8940;-78
2023/06/12 18:21:54;;;;;;;;;21.00;21.00;;;;;;;;5009421;28;8865;-71
2023/06/12 18:24:19;;;;;;;;;20.50;19.25;;;;;;;;5009926;28;9575;-73
2023/06/12 18:26:44;;;;;;;;;17.50;17.50;;;;;;;;5009724;28;8838;-71
2023/06/12 18:29:11;;;;;;;;;15.75;15.75;;;;;;;;5008780;28;8825;-72
2023/06/12 18:31:39;;;;;;;;;21.75;21.25;;;;;;;;5005370;28;8845;-72
2023/06/12 18:34:04;;;;;;;;;17.75;16.00;;;;;;;;5001110;28;12198;-72
2023/06/12 18:36:29;;;;;;;;;15.75;12.50;;;;;;;;4999894;28;11401;-73
2023/06/12 18:38:55;;;;;;;;;19.00;19.00;;;;;;;;5008938;28;8915;-73
2023/06/12 18:41:20;;;;;;;;;20.50;20.50;;;;;;;;5009331;28;8920;-73
2023/06/12 18:43:45;;;;;;;;;20.50;19.75;;;;;;;;5009596;28;8810;-72
2023/06/12 18:46:10;;;;;;;;;20.75;18.75;;;;;;;;5008975;28;8821;-73
2023/06/12 18:48:35;;;;;;;;;22.00;19.25;;;;;;;;5009392;28;8810;-70
2023/06/12 18:51:01;;;;;;;;;18.75;18.75;;;;;;;;5009013;28;8850;-73
2023/06/12 18:53:26;;;;;;;;;19.50;19.50;;;;;;;;5009378;28;8814;-73
2023/06/12 18:55:51;;;;;;;;;18.75;18.75;;;;;;;;5008223;28;8844;-73
2023/06/12 18:58:17;;;;;;;;;21.75;19.50;;;;;;;;5007933;28;8825;-72
2023/06/12 19:00:42;;;;;;;;;20.25;20.25;;;;;;;;5002351;28;8849;-72
2023/06/12 19:03:07;;;;;;;;;17.25;17.25;;;;;;;;5005443;28;8829;-71
2023/06/12 19:05:32;;;;;;;;;21.25;21.25;;;;;;;;5008444;28;8984;-72
2023/06/12 19:07:58;;;;;;;;;22.50;19.75;;;;;;;;4994137;28;8929;-71
2023/06/12 19:10:23;;;;;;;;;22.50;22.50;;;;;;;;5007181;28;8830;-71
2023/06/12 19:12:48;;;;;;;;;17.25;17.25;;;;;;;;5008743;28;9570;-72
2023/06/12 19:15:13;;;;;;;;;19.50;17.50;;;;;;;;5004691;28;8851;-72
2023/06/12 19:17:39;;;;;;;;;19.25;19.25;;;;;;;;5006472;28;8899;-72
2023/06/12 19:20:05;;;;;;;;;23.75;22.25;;;;;;;;5008317;28;8839;-71
2023/06/12 19:22:30;;;;;;;;;23.00;18.75;;;;;;;;5008062;28;8837;-69
2023/06/12 19:24:55;;;;;;;;;19.50;19.50;;;;;;;;5008191;28;11214;-70
2023/06/12 19:27:21;;;;;;;;;21.50;20.75;;;;;;;;5008799;28;9602;-71
2023/06/12 19:29:46;;;;;;;;;24.25;22.50;;;;;;;;5005288;28;8838;-71
2023/06/12 19:32:13;;;;;;;;;22.25;22.00;;;;;;;;5001793;28;8821;-75
2023/06/12 19:34:38;;;;;;;;;23.25;21.50;;;;;;;;5007736;28;8817;-73
2023/06/12 19:37:04;;;;;;;;;25.00;24.50;;;;;;;;5006765;28;11311;-73
2023/06/12 19:39:29;;;;;;;;;21.25;20.50;;;;;;;;5008551;28;8845;-73
2023/06/12 19:41:55;;;;;;;;;18.50;18.50;;;;;;;;5006047;28;8834;-72
2023/06/12 19:44:20;;;;;;;;;24.75;22.75;;;;;;;;5008067;28;8926;-73
2023/06/12 19:46:45;;;;;;;;;21.00;21.00;;;;;;;;5004111;28;8857;-72
2023/06/12 19:49:10;;;;;;;;;20.50;20.50;;;;;;;;5008191;28;8838;-72
2023/06/12 19:51:35;;;;;;;;;23.00;21.75;;;;;;;;5007896;28;8822;-72
2023/06/12 19:54:01;;;;;;;;;17.75;17.75;;;;;;;;5008221;28;10069;-71
2023/06/12 19:56:26;;;;;;;;;23.25;22.50;;;;;;;;5002076;28;8825;-73
2023/06/12 19:58:51;;;;;;;;;21.00;20.00;;;;;;;;5007533;28;8938;-73
2023/06/12 20:01:16;;;;;;;;;18.00;16.50;;;;;;;;4998976;28;8833;-72
2023/06/12 20:03:42;;;;;;;;;25.75;24.50;;;;;;;;5008066;28;8838;-71
2023/06/12 20:06:07;;;;;;;;;22.00;21.00;;;;;;;;5007009;28;8845;-72
2023/06/12 20:08:33;;;;;;;;;20.25;20.25;;;;;;;;5007918;28;8814;-72
2023/06/12 20:10:59;;;;;;;;;21.50;20.50;;;;;;;;5007973;28;8818;-71
2023/06/12 20:13:24;;;;;;;;;21.00;18.00;;;;;;;;5006662;28;8814;-72
2023/06/12 20:15:49;;;;;;;;;20.25;19.75;;;;;;;;5007967;28;8856;-72
2023/06/12 20:18:14;;;;;;;;;14.25;14.25;;;;;;;;5007846;28;8948;-72
2023/06/12 20:20:40;;;;;;;;;19.50;19.00;;;;;;;;5005255;28;8853;-72
2023/06/12 20:23:05;;;;;;;;;22.50;18.50;;;;;;;;5008131;28;8844;-71
2023/06/12 20:25:31;;;;;;;;;17.25;16.50;;;;;;;;5002821;28;8832;-71
2023/06/12 20:27:58;;;;;;;;;22.00;21.75;;;;;;;;5007492;28;8817;-72
2023/06/12 20:30:23;;;;;;;;;21.25;20.00;;;;;;;;5001102;28;11241;-72
2023/06/12 20:32:48;;;;;;;;;20.50;19.50;;;;;;;;5001510;28;11331;-72
2023/06/12 20:35:13;;;;;;;;;18.50;17.00;;;;;;;;5004649;28;8825;-72
2023/06/12 20:37:38;;;;;;;;;17.75;17.50;;;;;;;;5007269;28;8818;-73
2023/06/12 20:40:04;;;;;;;;;16.00;15.00;;;;;;;;5007907;28;8830;-73
2023/06/12 20:42:29;;;;;;;;;19.25;18.75;;;;;;;;5005658;28;8869;-72
2023/06/12 20:44:54;;;;;;;;;17.25;16.75;;;;;;;;5007877;28;8842;-72
2023/06/12 20:47:20;;;;;;;;;17.25;16.75;;;;;;;;5007176;28;8872;-72
2023/06/12 20:49:45;;;;;;;;;19.75;19.50;;;;;;;;5006720;28;8833;-72
2023/06/12 20:52:10;;;;;;;;;13.25;13.00;;;;;;;;5007174;28;8876;-73
2023/06/12 20:54:35;;;;;;;;;18.75;16.25;;;;;;;;5007721;28;9654;-72
2023/06/12 20:57:01;;;;;;;;;18.75;18.25;;;;;;;;5007193;28;8810;-72
2023/06/12 20:59:26;;;;;;;;;17.75;17.75;;;;;;;;5004828;28;8940;-72
2023/06/12 21:01:51;;;;;;;;;17.25;16.75;;;;;;;;4994967;28;8944;-72
2023/06/12 21:04:16;;;;;;;;;19.75;19.75;;;;;;;;5000156;28;8825;-72
2023/06/12 21:06:41;;;;;;;;;17.75;17.75;;;;;;;;5001064;28;8888;-72
2023/06/12 21:09:07;;;;;;;;;19.50;17.50;;;;;;;;5005938;28;8830;-72
2023/06/12 21:11:33;;;;;;;;;16.00;15.50;;;;;;;;5006829;28;8914;-72
2023/06/12 21:14:00;;;;;;;;;20.00;19.25;;;;;;;;5002933;28;8777;-72
2023/06/12 21:16:25;;;;;;;;;19.25;18.00;;;;;;;;5007000;28;11640;-72
2023/06/12 21:18:50;;;;;;;;;17.25;17.25;;;;;;;;5006783;28;11527;-72
2023/06/12 21:21:16;;;;;;;;;19.25;17.50;;;;;;;;5006788;28;8873;-73
